Airfield :
LOGIN :

Register | Disclaimer

   EN    FR    IT 

 










Legend :    VFR   Marginal VFR   IFR   Intensive IFR   Very Intensive IFR
Visi :
Ceiling :
>= 8 km
>= 3000ft
5 to 8 km
1000 to 3000 ft
1500m to 5 km
500 to 1000 ft
800 to 1500m
200 to 500 ft
< 800m
< 200 ft
Symbols :   Thunderstorms  Fog  Heavy snow  Heavy precipitations  Wind > 20 kt
SIGMETs :     Misc.  Thunderstorms  Icing  Turbulence  Mountain Waves  Volcanic Ashes







- Airport Elevation : 158 ft
- IATA code : QAR


EHDL - Deelen Airbase

CURRENT METAR :
  • 180655Z AUTO 23021G32KT 190V280 9999 -RA FEW012 SCT014 FEW015CB BKN017 08/07 Q0985 RERA REDZ GRN

EXPIRED METARs :
  • 180625Z AUTO 21021KT 160V260 9999 FEW011 BKN013 BKN016 07/06 Q0986 GRN
  • 180555Z AUTO 20020G31KT 150V250 9999 FEW005 BKN006 BKN007 FEW015CB 05/04 Q0987 YLO
  • 180525Z AUTO 18017KT 140V250 5000 -SHRA FEW004 BKN006 BKN007 FEW015CB 04/03 Q0988 YLO
  • 180455Z AUTO 18020G34KT 110V230 3000 -RASN FEW005 SCT007 BKN009 03/02 Q0990 YLO
  • 180425Z AUTO 17017KT 140V220 3200 -SHSNRA FEW005 BKN007 BKN008 03/02 Q0992 RESN YLO

Expired Forecast.
No reported NOTAMs for that airfield.
2 SIGMETs reported for the Amsterdam FIR (EHAA) :
 
Severe icing
EHAA SIGMET 2 VALID 180650/180900 EHDB
EHAA AMSTERDAM FIR SEV ICE OBS NE OF LINE N5226 E00244 - N5155 E00644 FL090 MOV ENE 35KT WKN=
Severe turbulence
EHAA SIGMET 1 VALID 180330/180730 EHDB
EHAA AMSTERDAM FIR SEV TURB FCST S OF LINE N5338 E00346 - N5343 E00629 SFC/FL060 STNR NC=



MET'MAP, your aeronautical weather chart ! - Copyright ORBIFLY December 2007 - Disclaimer

ORBIFLY MET'MAP TEAM :

Programming & Development : Alexandra Zaïnal
Concept & Development : Baudouin d'Aumeries
Co-Development & Prog : Marc-Olivier Méhu
Technical & hardware support : Manuel Goepfert

Contact : metmap@orbifly.com




SOURCES & CREDITS :

   NOAA